sensor_id;sensor_type;location;lat;lon;timestamp;P1;durP1;ratioP1;P2;durP2;ratioP2
77733;SDS011;66902;41.720;44.796;2023-06-22T00:01:34;10.10;;;4.20;;
77733;SDS011;66902;41.720;44.796;2023-06-22T00:04:05;11.50;;;8.10;;
77733;SDS011;66902;41.720;44.796;2023-06-22T00:06:36;12.70;;;6.30;;
77733;SDS011;66902;41.720;44.796;2023-06-22T00:09:07;7.20;;;4.40;;
77733;SDS011;66902;41.720;44.796;2023-06-22T00:11:39;8.60;;;4.80;;
77733;SDS011;66902;41.720;44.796;2023-06-22T00:14:09;14.10;;;2.60;;
77733;SDS011;66902;41.720;44.796;2023-06-22T00:16:40;9.60;;;5.10;;
77733;SDS011;66902;41.720;44.796;2023-06-22T00:19:11;4.50;;;3.30;;
77733;SDS011;66902;41.720;44.796;2023-06-22T00:21:42;5.50;;;4.30;;
77733;SDS011;66902;41.720;44.796;2023-06-22T00:24:15;5.20;;;3.10;;
77733;SDS011;66902;41.720;44.796;2023-06-22T00:26:45;3.50;;;2.30;;
77733;SDS011;66902;41.720;44.796;2023-06-22T00:29:16;8.90;;;4.00;;
77733;SDS011;66902;41.720;44.796;2023-06-22T00:31:47;9.00;;;3.20;;
77733;SDS011;66902;41.720;44.796;2023-06-22T00:34:17;5.30;;;2.70;;
77733;SDS011;66902;41.720;44.796;2023-06-22T00:36:47;6.40;;;2.50;;
77733;SDS011;66902;41.720;44.796;2023-06-22T00:39:19;6.00;;;2.10;;
77733;SDS011;66902;41.720;44.796;2023-06-22T00:41:50;5.40;;;2.10;;
77733;SDS011;66902;41.720;44.796;2023-06-22T00:44:20;7.80;;;3.00;;
77733;SDS011;66902;41.720;44.796;2023-06-22T00:46:51;9.90;;;5.40;;
77733;SDS011;66902;41.720;44.796;2023-06-22T00:49:21;7.50;;;3.30;;
77733;SDS011;66902;41.720;44.796;2023-06-22T00:51:52;11.40;;;3.20;;
77733;SDS011;66902;41.720;44.796;2023-06-22T00:54:22;5.50;;;3.20;;
77733;SDS011;66902;41.720;44.796;2023-06-22T00:56:53;8.70;;;3.50;;
77733;SDS011;66902;41.720;44.796;2023-06-22T00:59:25;5.10;;;1.70;;
77733;SDS011;66902;41.720;44.796;2023-06-22T01:01:56;3.30;;;1.80;;
77733;SDS011;66902;41.720;44.796;2023-06-22T01:07:06;5.10;;;1.00;;
77733;SDS011;66902;41.720;44.796;2023-06-22T01:09:44;15.70;;;3.50;;
77733;SDS011;66902;41.720;44.796;2023-06-22T01:12:18;7.80;;;3.60;;
77733;SDS011;66902;41.720;44.796;2023-06-22T01:14:50;6.20;;;1.80;;
77733;SDS011;66902;41.720;44.796;2023-06-22T01:17:24;4.90;;;1.90;;
77733;SDS011;66902;41.720;44.796;2023-06-22T01:19:56;6.70;;;2.30;;
77733;SDS011;66902;41.720;44.796;2023-06-22T01:22:27;2.80;;;2.00;;
77733;SDS011;66902;41.720;44.796;2023-06-22T01:25:03;3.30;;;2.10;;
77733;SDS011;66902;41.720;44.796;2023-06-22T01:27:40;7.20;;;4.40;;
77733;SDS011;66902;41.720;44.796;2023-06-22T01:30:19;6.30;;;4.90;;
77733;SDS011;66902;41.720;44.796;2023-06-22T01:32:55;6.10;;;2.70;;
77733;SDS011;66902;41.720;44.796;2023-06-22T01:35:26;4.10;;;3.20;;
77733;SDS011;66902;41.720;44.796;2023-06-22T01:37:57;6.70;;;3.10;;
77733;SDS011;66902;41.720;44.796;2023-06-22T01:40:27;10.70;;;3.50;;
77733;SDS011;66902;41.720;44.796;2023-06-22T01:42:59;9.60;;;3.10;;
77733;SDS011;66902;41.720;44.796;2023-06-22T01:45:31;4.50;;;2.30;;
77733;SDS011;66902;41.720;44.796;2023-06-22T01:48:01;3.50;;;2.20;;
77733;SDS011;66902;41.720;44.796;2023-06-22T01:50:32;8.00;;;2.70;;
77733;SDS011;66902;41.720;44.796;2023-06-22T01:53:02;5.20;;;3.10;;
77733;SDS011;66902;41.720;44.796;2023-06-22T01:55:34;6.30;;;3.20;;
77733;SDS011;66902;41.720;44.796;2023-06-22T01:58:05;10.90;;;3.20;;
77733;SDS011;66902;41.720;44.796;2023-06-22T02:00:36;9.20;;;4.20;;
77733;SDS011;66902;41.720;44.796;2023-06-22T02:03:08;9.40;;;3.40;;
77733;SDS011;66902;41.720;44.796;2023-06-22T02:05:43;5.10;;;3.30;;
77733;SDS011;66902;41.720;44.796;2023-06-22T02:08:20;19.00;;;4.30;;
77733;SDS011;66902;41.720;44.796;2023-06-22T02:10:51;9.10;;;3.80;;
77733;SDS011;66902;41.720;44.796;2023-06-22T02:13:23;7.70;;;3.30;;
77733;SDS011;66902;41.720;44.796;2023-06-22T02:15:54;12.60;;;3.50;;
77733;SDS011;66902;41.720;44.796;2023-06-22T02:18:26;14.00;;;3.20;;
77733;SDS011;66902;41.720;44.796;2023-06-22T02:20:56;12.40;;;3.90;;
77733;SDS011;66902;41.720;44.796;2023-06-22T02:23:27;6.60;;;2.90;;
77733;SDS011;66902;41.720;44.796;2023-06-22T02:25:58;11.60;;;3.60;;
77733;SDS011;66902;41.720;44.796;2023-06-22T02:28:29;8.20;;;3.60;;
77733;SDS011;66902;41.720;44.796;2023-06-22T02:30:59;4.70;;;2.30;;
77733;SDS011;66902;41.720;44.796;2023-06-22T02:33:30;6.40;;;2.30;;
77733;SDS011;66902;41.720;44.796;2023-06-22T02:36:01;3.10;;;2.00;;
77733;SDS011;66902;41.720;44.796;2023-06-22T02:38:33;2.70;;;1.80;;
77733;SDS011;66902;41.720;44.796;2023-06-22T02:41:04;5.20;;;2.20;;
77733;SDS011;66902;41.720;44.796;2023-06-22T02:43:35;7.30;;;2.90;;
77733;SDS011;66902;41.720;44.796;2023-06-22T02:46:05;2.80;;;1.50;;
77733;SDS011;66902;41.720;44.796;2023-06-22T02:48:35;2.90;;;2.10;;
77733;SDS011;66902;41.720;44.796;2023-06-22T02:51:06;2.60;;;1.60;;
77733;SDS011;66902;41.720;44.796;2023-06-22T02:53:36;5.90;;;1.80;;
77733;SDS011;66902;41.720;44.796;2023-06-22T02:56:07;5.90;;;2.30;;
77733;SDS011;66902;41.720;44.796;2023-06-22T02:58:37;3.20;;;1.70;;
77733;SDS011;66902;41.720;44.796;2023-06-22T03:01:07;3.60;;;2.50;;
77733;SDS011;66902;41.720;44.796;2023-06-22T03:03:42;3.00;;;1.60;;
77733;SDS011;66902;41.720;44.796;2023-06-22T03:06:12;5.40;;;3.80;;
77733;SDS011;66902;41.720;44.796;2023-06-22T03:08:43;7.30;;;1.80;;
77733;SDS011;66902;41.720;44.796;2023-06-22T03:11:13;4.90;;;3.90;;
77733;SDS011;66902;41.720;44.796;2023-06-22T03:13:44;5.60;;;2.30;;
77733;SDS011;66902;41.720;44.796;2023-06-22T03:16:14;6.10;;;2.30;;
77733;SDS011;66902;41.720;44.796;2023-06-22T03:18:45;9.50;;;2.70;;
77733;SDS011;66902;41.720;44.796;2023-06-22T03:21:15;16.40;;;3.20;;
77733;SDS011;66902;41.720;44.796;2023-06-22T03:23:46;6.00;;;3.50;;
77733;SDS011;66902;41.720;44.796;2023-06-22T03:26:17;8.70;;;2.60;;
77733;SDS011;66902;41.720;44.796;2023-06-22T03:28:47;5.00;;;2.80;;
77733;SDS011;66902;41.720;44.796;2023-06-22T03:31:18;7.30;;;3.50;;
77733;SDS011;66902;41.720;44.796;2023-06-22T03:33:50;4.60;;;1.70;;
77733;SDS011;66902;41.720;44.796;2023-06-22T03:36:20;4.00;;;2.00;;
77733;SDS011;66902;41.720;44.796;2023-06-22T03:38:51;13.00;;;4.00;;
77733;SDS011;66902;41.720;44.796;2023-06-22T03:41:22;3.90;;;2.50;;
77733;SDS011;66902;41.720;44.796;2023-06-22T03:43:53;8.20;;;3.00;;
77733;SDS011;66902;41.720;44.796;2023-06-22T03:46:24;11.90;;;2.20;;
77733;SDS011;66902;41.720;44.796;2023-06-22T03:48:55;7.30;;;3.70;;
77733;SDS011;66902;41.720;44.796;2023-06-22T03:51:28;2.60;;;1.90;;
77733;SDS011;66902;41.720;44.796;2023-06-22T03:53:59;7.60;;;3.50;;
77733;SDS011;66902;41.720;44.796;2023-06-22T03:56:31;6.40;;;3.20;;
77733;SDS011;66902;41.720;44.796;2023-06-22T03:59:01;4.40;;;2.50;;
77733;SDS011;66902;41.720;44.796;2023-06-22T04:01:31;8.40;;;3.80;;
77733;SDS011;66902;41.720;44.796;2023-06-22T04:04:02;5.40;;;3.50;;
77733;SDS011;66902;41.720;44.796;2023-06-22T04:06:33;4.60;;;2.30;;
77733;SDS011;66902;41.720;44.796;2023-06-22T04:09:05;3.10;;;1.40;;
77733;SDS011;66902;41.720;44.796;2023-06-22T04:11:36;3.30;;;2.10;;
77733;SDS011;66902;41.720;44.796;2023-06-22T04:14:07;6.00;;;3.00;;
77733;SDS011;66902;41.720;44.796;2023-06-22T04:16:38;6.20;;;2.40;;
77733;SDS011;66902;41.720;44.796;2023-06-22T04:19:09;4.40;;;1.70;;
77733;SDS011;66902;41.720;44.796;2023-06-22T04:21:44;7.00;;;3.00;;
77733;SDS011;66902;41.720;44.796;2023-06-22T04:24:16;10.40;;;2.70;;
77733;SDS011;66902;41.720;44.796;2023-06-22T04:26:47;3.90;;;2.20;;
77733;SDS011;66902;41.720;44.796;2023-06-22T04:29:23;10.60;;;2.30;;
77733;SDS011;66902;41.720;44.796;2023-06-22T04:31:58;4.20;;;2.80;;
77733;SDS011;66902;41.720;44.796;2023-06-22T04:34:31;3.50;;;2.30;;
77733;SDS011;66902;41.720;44.796;2023-06-22T04:37:05;7.70;;;3.20;;
77733;SDS011;66902;41.720;44.796;2023-06-22T04:39:35;6.70;;;1.60;;
77733;SDS011;66902;41.720;44.796;2023-06-22T04:42:06;2.50;;;1.70;;
77733;SDS011;66902;41.720;44.796;2023-06-22T04:44:36;5.70;;;1.90;;
77733;SDS011;66902;41.720;44.796;2023-06-22T04:47:07;5.80;;;1.20;;
77733;SDS011;66902;41.720;44.796;2023-06-22T04:49:39;10.00;;;1.70;;
77733;SDS011;66902;41.720;44.796;2023-06-22T04:52:11;7.80;;;2.20;;
77733;SDS011;66902;41.720;44.796;2023-06-22T04:54:48;7.00;;;1.30;;
77733;SDS011;66902;41.720;44.796;2023-06-22T04:57:24;6.50;;;1.80;;
77733;SDS011;66902;41.720;44.796;2023-06-22T05:00:00;9.50;;;3.20;;
77733;SDS011;66902;41.720;44.796;2023-06-22T05:02:41;6.60;;;2.50;;
77733;SDS011;66902;41.720;44.796;2023-06-22T05:05:13;4.90;;;1.80;;
77733;SDS011;66902;41.720;44.796;2023-06-22T05:07:44;2.00;;;1.20;;
77733;SDS011;66902;41.720;44.796;2023-06-22T05:10:17;3.50;;;1.10;;
77733;SDS011;66902;41.720;44.796;2023-06-22T05:12:48;3.30;;;1.10;;
77733;SDS011;66902;41.720;44.796;2023-06-22T05:15:19;9.30;;;1.80;;
77733;SDS011;66902;41.720;44.796;2023-06-22T05:17:51;5.40;;;1.70;;
77733;SDS011;66902;41.720;44.796;2023-06-22T05:20:22;6.60;;;0.90;;
77733;SDS011;66902;41.720;44.796;2023-06-22T05:22:52;2.90;;;1.90;;
77733;SDS011;66902;41.720;44.796;2023-06-22T05:25:22;2.10;;;1.20;;
77733;SDS011;66902;41.720;44.796;2023-06-22T05:27:53;1.60;;;0.70;;
77733;SDS011;66902;41.720;44.796;2023-06-22T05:30:23;1.70;;;1.00;;
77733;SDS011;66902;41.720;44.796;2023-06-22T05:32:54;1.00;;;0.60;;
77733;SDS011;66902;41.720;44.796;2023-06-22T05:35:25;1.50;;;0.90;;
77733;SDS011;66902;41.720;44.796;2023-06-22T05:37:56;1.60;;;0.60;;
77733;SDS011;66902;41.720;44.796;2023-06-22T05:40:27;1.80;;;1.00;;
77733;SDS011;66902;41.720;44.796;2023-06-22T05:42:58;2.20;;;0.60;;
77733;SDS011;66902;41.720;44.796;2023-06-22T05:45:29;1.30;;;0.40;;
77733;SDS011;66902;41.720;44.796;2023-06-22T05:48:00;3.00;;;1.00;;
77733;SDS011;66902;41.720;44.796;2023-06-22T05:50:31;7.00;;;0.70;;
77733;SDS011;66902;41.720;44.796;2023-06-22T05:53:01;9.50;;;4.40;;
77733;SDS011;66902;41.720;44.796;2023-06-22T05:55:32;14.60;;;1.60;;
77733;SDS011;66902;41.720;44.796;2023-06-22T05:58:03;4.90;;;1.10;;
77733;SDS011;66902;41.720;44.796;2023-06-22T06:00:33;3.30;;;1.10;;
77733;SDS011;66902;41.720;44.796;2023-06-22T06:03:04;3.00;;;1.60;;
77733;SDS011;66902;41.720;44.796;2023-06-22T06:05:35;3.10;;;0.70;;
77733;SDS011;66902;41.720;44.796;2023-06-22T06:08:06;6.70;;;0.80;;
77733;SDS011;66902;41.720;44.796;2023-06-22T06:10:39;20.80;;;18.50;;
77733;SDS011;66902;41.720;44.796;2023-06-22T06:13:09;1.80;;;0.90;;
77733;SDS011;66902;41.720;44.796;2023-06-22T06:15:40;6.30;;;1.10;;
77733;SDS011;66902;41.720;44.796;2023-06-22T06:18:10;0.90;;;0.60;;
77733;SDS011;66902;41.720;44.796;2023-06-22T06:20:41;1.00;;;0.60;;
77733;SDS011;66902;41.720;44.796;2023-06-22T06:23:12;1.50;;;0.80;;
77733;SDS011;66902;41.720;44.796;2023-06-22T06:25:42;6.20;;;2.50;;
77733;SDS011;66902;41.720;44.796;2023-06-22T06:28:13;9.70;;;2.40;;
77733;SDS011;66902;41.720;44.796;2023-06-22T06:30:45;5.90;;;2.30;;
77733;SDS011;66902;41.720;44.796;2023-06-22T06:33:16;4.10;;;2.00;;
77733;SDS011;66902;41.720;44.796;2023-06-22T06:35:46;4.10;;;2.30;;
77733;SDS011;66902;41.720;44.796;2023-06-22T06:38:18;3.40;;;2.10;;
77733;SDS011;66902;41.720;44.796;2023-06-22T06:40:50;3.90;;;0.90;;
77733;SDS011;66902;41.720;44.796;2023-06-22T06:43:21;1.50;;;1.10;;
77733;SDS011;66902;41.720;44.796;2023-06-22T06:45:52;6.80;;;2.10;;
77733;SDS011;66902;41.720;44.796;2023-06-22T06:48:23;4.10;;;1.20;;
77733;SDS011;66902;41.720;44.796;2023-06-22T06:50:53;4.40;;;1.70;;
77733;SDS011;66902;41.720;44.796;2023-06-22T06:53:26;3.30;;;1.40;;
77733;SDS011;66902;41.720;44.796;2023-06-22T06:56:04;3.30;;;1.40;;
77733;SDS011;66902;41.720;44.796;2023-06-22T07:01:11;4.90;;;1.30;;
77733;SDS011;66902;41.720;44.796;2023-06-22T07:03:42;6.40;;;3.00;;
77733;SDS011;66902;41.720;44.796;2023-06-22T07:06:12;3.10;;;1.80;;
77733;SDS011;66902;41.720;44.796;2023-06-22T07:08:47;3.00;;;2.10;;
77733;SDS011;66902;41.720;44.796;2023-06-22T07:11:18;3.20;;;1.30;;
77733;SDS011;66902;41.720;44.796;2023-06-22T07:13:49;2.50;;;1.60;;
77733;SDS011;66902;41.720;44.796;2023-06-22T07:16:22;4.10;;;1.60;;
77733;SDS011;66902;41.720;44.796;2023-06-22T07:18:54;3.70;;;1.80;;
77733;SDS011;66902;41.720;44.796;2023-06-22T07:21:26;2.80;;;2.20;;
77733;SDS011;66902;41.720;44.796;2023-06-22T07:23:57;2.70;;;2.00;;
77733;SDS011;66902;41.720;44.796;2023-06-22T07:26:28;2.40;;;1.30;;
77733;SDS011;66902;41.720;44.796;2023-06-22T07:28:58;4.10;;;1.80;;
77733;SDS011;66902;41.720;44.796;2023-06-22T07:31:28;11.30;;;2.40;;
77733;SDS011;66902;41.720;44.796;2023-06-22T07:34:00;4.70;;;3.10;;
77733;SDS011;66902;41.720;44.796;2023-06-22T07:36:33;5.90;;;2.70;;
77733;SDS011;66902;41.720;44.796;2023-06-22T07:39:04;5.50;;;3.40;;
77733;SDS011;66902;41.720;44.796;2023-06-22T07:41:36;3.20;;;1.70;;
77733;SDS011;66902;41.720;44.796;2023-06-22T07:44:08;5.80;;;2.60;;
77733;SDS011;66902;41.720;44.796;2023-06-22T07:46:38;5.30;;;1.60;;
77733;SDS011;66902;41.720;44.796;2023-06-22T07:49:09;3.90;;;1.80;;
77733;SDS011;66902;41.720;44.796;2023-06-22T07:51:39;2.80;;;1.90;;
77733;SDS011;66902;41.720;44.796;2023-06-22T07:54:09;5.70;;;3.30;;
77733;SDS011;66902;41.720;44.796;2023-06-22T07:56:40;7.20;;;2.90;;
77733;SDS011;66902;41.720;44.796;2023-06-22T07:59:12;3.50;;;2.90;;
77733;SDS011;66902;41.720;44.796;2023-06-22T08:01:43;5.20;;;2.20;;
77733;SDS011;66902;41.720;44.796;2023-06-22T08:04:13;3.70;;;2.50;;
77733;SDS011;66902;41.720;44.796;2023-06-22T08:06:44;11.40;;;5.70;;
77733;SDS011;66902;41.720;44.796;2023-06-22T08:09:15;7.90;;;3.80;;
77733;SDS011;66902;41.720;44.796;2023-06-22T08:11:45;4.40;;;3.90;;
77733;SDS011;66902;41.720;44.796;2023-06-22T08:14:16;3.80;;;2.20;;
77733;SDS011;66902;41.720;44.796;2023-06-22T08:16:47;10.90;;;2.60;;
77733;SDS011;66902;41.720;44.796;2023-06-22T08:19:19;7.40;;;2.50;;
77733;SDS011;66902;41.720;44.796;2023-06-22T08:21:50;4.40;;;2.70;;
77733;SDS011;66902;41.720;44.796;2023-06-22T08:24:21;7.80;;;6.50;;
77733;SDS011;66902;41.720;44.796;2023-06-22T08:26:51;3.80;;;3.00;;
77733;SDS011;66902;41.720;44.796;2023-06-22T08:29:22;7.10;;;4.70;;
77733;SDS011;66902;41.720;44.796;2023-06-22T08:31:52;3.60;;;3.20;;
77733;SDS011;66902;41.720;44.796;2023-06-22T08:34:23;5.40;;;2.50;;
77733;SDS011;66902;41.720;44.796;2023-06-22T08:36:56;3.90;;;3.00;;
77733;SDS011;66902;41.720;44.796;2023-06-22T08:39:26;4.10;;;2.90;;
77733;SDS011;66902;41.720;44.796;2023-06-22T08:41:57;8.10;;;3.80;;
77733;SDS011;66902;41.720;44.796;2023-06-22T08:44:27;3.50;;;3.00;;
77733;SDS011;66902;41.720;44.796;2023-06-22T08:46:58;4.10;;;3.70;;
77733;SDS011;66902;41.720;44.796;2023-06-22T08:49:28;6.60;;;3.90;;
77733;SDS011;66902;41.720;44.796;2023-06-22T08:51:59;7.90;;;3.80;;
77733;SDS011;66902;41.720;44.796;2023-06-22T08:54:30;11.50;;;2.80;;
77733;SDS011;66902;41.720;44.796;2023-06-22T08:57:01;4.40;;;3.00;;
77733;SDS011;66902;41.720;44.796;2023-06-22T08:59:34;3.30;;;2.30;;
77733;SDS011;66902;41.720;44.796;2023-06-22T09:02:05;3.10;;;2.20;;
77733;SDS011;66902;41.720;44.796;2023-06-22T09:04:36;6.80;;;2.50;;
77733;SDS011;66902;41.720;44.796;2023-06-22T09:07:08;8.20;;;3.40;;
77733;SDS011;66902;41.720;44.796;2023-06-22T09:09:40;5.70;;;3.30;;
77733;SDS011;66902;41.720;44.796;2023-06-22T09:12:11;3.90;;;2.10;;
77733;SDS011;66902;41.720;44.796;2023-06-22T09:14:41;3.10;;;2.10;;
77733;SDS011;66902;41.720;44.796;2023-06-22T09:17:12;4.00;;;2.90;;
77733;SDS011;66902;41.720;44.796;2023-06-22T09:19:45;4.50;;;3.50;;
77733;SDS011;66902;41.720;44.796;2023-06-22T09:22:18;4.00;;;3.00;;
77733;SDS011;66902;41.720;44.796;2023-06-22T09:24:49;4.70;;;4.00;;
77733;SDS011;66902;41.720;44.796;2023-06-22T09:27:20;6.30;;;3.40;;
77733;SDS011;66902;41.720;44.796;2023-06-22T09:29:51;10.30;;;3.80;;
77733;SDS011;66902;41.720;44.796;2023-06-22T09:32:23;4.10;;;2.90;;
77733;SDS011;66902;41.720;44.796;2023-06-22T09:34:54;6.00;;;1.80;;
77733;SDS011;66902;41.720;44.796;2023-06-22T09:37:24;7.20;;;4.30;;
77733;SDS011;66902;41.720;44.796;2023-06-22T09:39:55;8.10;;;5.90;;
77733;SDS011;66902;41.720;44.796;2023-06-22T09:42:26;8.80;;;4.50;;
77733;SDS011;66902;41.720;44.796;2023-06-22T09:44:57;5.90;;;3.50;;
77733;SDS011;66902;41.720;44.796;2023-06-22T09:47:31;9.40;;;6.20;;
77733;SDS011;66902;41.720;44.796;2023-06-22T09:50:04;4.80;;;3.80;;
77733;SDS011;66902;41.720;44.796;2023-06-22T09:52:37;5.70;;;5.10;;
77733;SDS011;66902;41.720;44.796;2023-06-22T09:55:11;5.70;;;3.40;;
77733;SDS011;66902;41.720;44.796;2023-06-22T09:57:43;3.50;;;2.40;;
77733;SDS011;66902;41.720;44.796;2023-06-22T10:00:16;5.90;;;2.50;;
77733;SDS011;66902;41.720;44.796;2023-06-22T10:02:49;3.10;;;2.40;;
77733;SDS011;66902;41.720;44.796;2023-06-22T10:05:21;2.70;;;2.10;;
77733;SDS011;66902;41.720;44.796;2023-06-22T10:07:52;4.80;;;2.10;;
77733;SDS011;66902;41.720;44.796;2023-06-22T10:10:24;7.00;;;1.80;;
77733;SDS011;66902;41.720;44.796;2023-06-22T10:12:55;4.90;;;3.40;;
77733;SDS011;66902;41.720;44.796;2023-06-22T10:15:29;2.30;;;2.10;;
77733;SDS011;66902;41.720;44.796;2023-06-22T10:18:00;9.00;;;2.40;;
77733;SDS011;66902;41.720;44.796;2023-06-22T10:20:31;2.20;;;2.00;;
77733;SDS011;66902;41.720;44.796;2023-06-22T10:23:02;3.20;;;1.40;;
77733;SDS011;66902;41.720;44.796;2023-06-22T10:25:35;6.70;;;3.30;;
77733;SDS011;66902;41.720;44.796;2023-06-22T10:28:09;4.20;;;2.00;;
77733;SDS011;66902;41.720;44.796;2023-06-22T10:30:41;7.20;;;2.30;;
77733;SDS011;66902;41.720;44.796;2023-06-22T10:33:17;3.60;;;1.60;;
77733;SDS011;66902;41.720;44.796;2023-06-22T10:35:49;2.10;;;1.90;;
77733;SDS011;66902;41.720;44.796;2023-06-22T10:38:22;2.60;;;2.00;;
77733;SDS011;66902;41.720;44.796;2023-06-22T10:40:52;3.30;;;1.60;;
77733;SDS011;66902;41.720;44.796;2023-06-22T10:43:25;3.30;;;2.40;;
77733;SDS011;66902;41.720;44.796;2023-06-22T10:45:56;7.20;;;6.50;;
77733;SDS011;66902;41.720;44.796;2023-06-22T10:48:27;3.00;;;2.20;;
77733;SDS011;66902;41.720;44.796;2023-06-22T10:50:58;2.60;;;1.80;;
77733;SDS011;66902;41.720;44.796;2023-06-22T10:53:29;3.00;;;2.10;;
77733;SDS011;66902;41.720;44.796;2023-06-22T10:55:59;3.70;;;2.40;;
77733;SDS011;66902;41.720;44.796;2023-06-22T10:58:30;6.20;;;2.40;;
77733;SDS011;66902;41.720;44.796;2023-06-22T11:01:02;7.90;;;3.10;;
77733;SDS011;66902;41.720;44.796;2023-06-22T11:03:32;2.60;;;2.40;;
77733;SDS011;66902;41.720;44.796;2023-06-22T11:06:06;3.60;;;2.10;;
77733;SDS011;66902;41.720;44.796;2023-06-22T11:08:37;3.00;;;2.40;;
77733;SDS011;66902;41.720;44.796;2023-06-22T11:11:20;4.00;;;3.10;;
77733;SDS011;66902;41.720;44.796;2023-06-22T11:13:52;6.50;;;4.70;;
77733;SDS011;66902;41.720;44.796;2023-06-22T11:16:26;5.50;;;3.50;;
77733;SDS011;66902;41.720;44.796;2023-06-22T11:18:56;4.10;;;2.60;;
77733;SDS011;66902;41.720;44.796;2023-06-22T11:21:28;7.90;;;5.50;;
77733;SDS011;66902;41.720;44.796;2023-06-22T11:24:00;2.50;;;2.10;;
77733;SDS011;66902;41.720;44.796;2023-06-22T11:26:31;4.30;;;2.30;;
77733;SDS011;66902;41.720;44.796;2023-06-22T11:29:03;3.80;;;2.80;;
77733;SDS011;66902;41.720;44.796;2023-06-22T11:31:34;4.00;;;2.10;;
77733;SDS011;66902;41.720;44.796;2023-06-22T11:34:08;4.90;;;4.40;;
77733;SDS011;66902;41.720;44.796;2023-06-22T11:36:40;14.60;;;10.60;;
77733;SDS011;66902;41.720;44.796;2023-06-22T11:39:10;14.30;;;12.70;;
77733;SDS011;66902;41.720;44.796;2023-06-22T11:41:42;11.50;;;10.00;;
77733;SDS011;66902;41.720;44.796;2023-06-22T11:44:13;15.70;;;8.10;;
77733;SDS011;66902;41.720;44.796;2023-06-22T11:46:44;10.60;;;8.80;;
77733;SDS011;66902;41.720;44.796;2023-06-22T11:49:16;12.60;;;8.80;;
77733;SDS011;66902;41.720;44.796;2023-06-22T11:51:47;11.00;;;9.80;;
77733;SDS011;66902;41.720;44.796;2023-06-22T11:54:19;12.20;;;7.20;;
77733;SDS011;66902;41.720;44.796;2023-06-22T11:56:50;8.70;;;6.10;;
77733;SDS011;66902;41.720;44.796;2023-06-22T11:59:30;6.90;;;4.20;;
77733;SDS011;66902;41.720;44.796;2023-06-22T12:02:04;5.30;;;4.70;;
77733;SDS011;66902;41.720;44.796;2023-06-22T12:04:40;6.90;;;6.20;;
77733;SDS011;66902;41.720;44.796;2023-06-22T12:07:12;9.50;;;5.40;;
77733;SDS011;66902;41.720;44.796;2023-06-22T12:09:43;9.70;;;5.60;;
77733;SDS011;66902;41.720;44.796;2023-06-22T12:12:13;10.20;;;6.60;;
77733;SDS011;66902;41.720;44.796;2023-06-22T12:14:44;11.70;;;5.00;;
77733;SDS011;66902;41.720;44.796;2023-06-22T12:17:16;10.70;;;7.80;;
77733;SDS011;66902;41.720;44.796;2023-06-22T12:19:46;11.30;;;4.20;;
77733;SDS011;66902;41.720;44.796;2023-06-22T12:22:18;5.00;;;3.30;;
77733;SDS011;66902;41.720;44.796;2023-06-22T12:24:52;9.60;;;4.70;;
77733;SDS011;66902;41.720;44.796;2023-06-22T12:27:23;11.30;;;10.30;;
77733;SDS011;66902;41.720;44.796;2023-06-22T12:29:53;13.20;;;11.30;;
77733;SDS011;66902;41.720;44.796;2023-06-22T12:32:26;12.30;;;11.20;;
77733;SDS011;66902;41.720;44.796;2023-06-22T12:34:57;12.30;;;10.20;;
77733;SDS011;66902;41.720;44.796;2023-06-22T12:37:28;13.30;;;7.70;;
77733;SDS011;66902;41.720;44.796;2023-06-22T12:40:00;11.00;;;7.70;;
77733;SDS011;66902;41.720;44.796;2023-06-22T12:42:32;9.50;;;8.50;;
77733;SDS011;66902;41.720;44.796;2023-06-22T12:45:06;16.10;;;11.60;;
77733;SDS011;66902;41.720;44.796;2023-06-22T12:47:39;19.70;;;10.90;;
77733;SDS011;66902;41.720;44.796;2023-06-22T12:50:15;20.20;;;18.00;;
77733;SDS011;66902;41.720;44.796;2023-06-22T12:52:47;11.10;;;7.90;;
77733;SDS011;66902;41.720;44.796;2023-06-22T12:55:22;7.50;;;6.70;;
77733;SDS011;66902;41.720;44.796;2023-06-22T12:57:53;9.70;;;6.80;;
77733;SDS011;66902;41.720;44.796;2023-06-22T13:00:25;9.20;;;6.30;;
77733;SDS011;66902;41.720;44.796;2023-06-22T13:02:56;9.60;;;5.90;;
77733;SDS011;66902;41.720;44.796;2023-06-22T13:05:27;7.20;;;6.20;;
77733;SDS011;66902;41.720;44.796;2023-06-22T13:07:59;4.80;;;3.90;;
77733;SDS011;66902;41.720;44.796;2023-06-22T13:10:31;5.20;;;2.90;;
77733;SDS011;66902;41.720;44.796;2023-06-22T13:13:03;2.50;;;2.00;;
77733;SDS011;66902;41.720;44.796;2023-06-22T13:15:34;4.10;;;2.80;;
77733;SDS011;66902;41.720;44.796;2023-06-22T13:18:04;5.90;;;3.20;;
77733;SDS011;66902;41.720;44.796;2023-06-22T13:20:38;6.10;;;3.50;;
77733;SDS011;66902;41.720;44.796;2023-06-22T13:23:08;6.40;;;3.90;;
77733;SDS011;66902;41.720;44.796;2023-06-22T13:25:39;3.50;;;2.60;;
77733;SDS011;66902;41.720;44.796;2023-06-22T13:28:10;4.90;;;3.60;;
77733;SDS011;66902;41.720;44.796;2023-06-22T13:30:55;9.10;;;3.00;;
77733;SDS011;66902;41.720;44.796;2023-06-22T13:33:26;2.80;;;2.40;;
77733;SDS011;66902;41.720;44.796;2023-06-22T13:35:57;7.70;;;3.90;;
77733;SDS011;66902;41.720;44.796;2023-06-22T13:38:28;4.60;;;2.70;;
77733;SDS011;66902;41.720;44.796;2023-06-22T13:41:00;8.40;;;3.20;;
77733;SDS011;66902;41.720;44.796;2023-06-22T13:43:32;6.90;;;3.90;;
77733;SDS011;66902;41.720;44.796;2023-06-22T13:46:03;5.10;;;2.70;;
77733;SDS011;66902;41.720;44.796;2023-06-22T13:48:34;5.80;;;3.20;;
77733;SDS011;66902;41.720;44.796;2023-06-22T13:51:07;5.40;;;2.70;;
77733;SDS011;66902;41.720;44.796;2023-06-22T13:53:38;2.60;;;1.90;;
77733;SDS011;66902;41.720;44.796;2023-06-22T13:56:10;2.70;;;1.80;;
77733;SDS011;66902;41.720;44.796;2023-06-22T13:58:42;2.50;;;1.70;;
77733;SDS011;66902;41.720;44.796;2023-06-22T14:01:12;5.00;;;1.60;;
77733;SDS011;66902;41.720;44.796;2023-06-22T14:03:49;4.10;;;2.30;;
77733;SDS011;66902;41.720;44.796;2023-06-22T14:06:20;3.50;;;1.90;;
77733;SDS011;66902;41.720;44.796;2023-06-22T14:08:52;2.20;;;1.40;;
77733;SDS011;66902;41.720;44.796;2023-06-22T14:11:24;1.90;;;1.30;;
77733;SDS011;66902;41.720;44.796;2023-06-22T14:14:02;4.50;;;1.70;;
77733;SDS011;66902;41.720;44.796;2023-06-22T14:16:33;1.80;;;1.50;;
77733;SDS011;66902;41.720;44.796;2023-06-22T14:19:04;2.60;;;1.90;;
77733;SDS011;66902;41.720;44.796;2023-06-22T14:21:35;3.50;;;2.10;;
77733;SDS011;66902;41.720;44.796;2023-06-22T14:24:06;2.30;;;1.90;;
77733;SDS011;66902;41.720;44.796;2023-06-22T14:26:37;5.10;;;1.80;;
77733;SDS011;66902;41.720;44.796;2023-06-22T14:29:07;6.10;;;2.00;;
77733;SDS011;66902;41.720;44.796;2023-06-22T14:31:38;4.30;;;1.50;;
77733;SDS011;66902;41.720;44.796;2023-06-22T14:34:11;5.70;;;3.50;;
77733;SDS011;66902;41.720;44.796;2023-06-22T14:36:41;7.50;;;3.80;;
77733;SDS011;66902;41.720;44.796;2023-06-22T14:39:12;8.10;;;5.60;;
77733;SDS011;66902;41.720;44.796;2023-06-22T14:41:45;16.90;;;12.50;;
77733;SDS011;66902;41.720;44.796;2023-06-22T14:44:19;9.00;;;6.90;;
77733;SDS011;66902;41.720;44.796;2023-06-22T14:46:54;6.90;;;4.50;;
77733;SDS011;66902;41.720;44.796;2023-06-22T14:49:25;6.10;;;3.60;;
77733;SDS011;66902;41.720;44.796;2023-06-22T14:51:55;7.20;;;4.30;;
77733;SDS011;66902;41.720;44.796;2023-06-22T14:54:26;7.10;;;3.70;;
77733;SDS011;66902;41.720;44.796;2023-06-22T14:56:56;6.90;;;5.20;;
77733;SDS011;66902;41.720;44.796;2023-06-22T14:59:27;9.50;;;4.90;;
77733;SDS011;66902;41.720;44.796;2023-06-22T15:01:57;10.70;;;4.00;;
77733;SDS011;66902;41.720;44.796;2023-06-22T15:04:28;8.40;;;5.80;;